Aviation Digital Data Service (ADDS)

Output produced by TAFs form (0010 UTC 05 July 2015)
found at http://www.aviationweather.gov/adds/tafs/
 
KABE 042359Z 0500/0524 06005KT P6SM OVC035 
     FM050200 VRB03KT P6SM SCT050 BKN150 
     FM050500 VRB03KT P6SM FEW050 SCT250 
     TEMPO 0509/0512 5SM BR 
     FM051200 30003KT P6SM SCT250 
     FM051600 25005KT P6SM FEW050